createdAt,value
2017-11-12T00:01:24.922Z,8.32
2017-11-12T00:03:52.482Z,8.98
2017-11-12T00:06:19.942Z,10.65
2017-11-12T00:08:47.481Z,8.55
2017-11-12T00:11:14.942Z,8.25
2017-11-12T00:13:42.407Z,9.30
2017-11-12T00:16:09.860Z,11.80
2017-11-12T00:18:37.326Z,10.73
2017-11-12T00:21:04.788Z,10.40
2017-11-12T00:23:33.029Z,12.32
2017-11-12T00:26:00.492Z,9.35
2017-11-12T00:28:27.960Z,10.88
2017-11-12T00:30:55.421Z,9.85
2017-11-12T00:33:23.689Z,16.83
2017-11-12T00:35:51.253Z,10.98
2017-11-12T00:38:18.805Z,9.13
2017-11-12T00:40:46.272Z,9.88
2017-11-12T00:43:13.727Z,10.00
2017-11-12T00:45:41.273Z,8.10
2017-11-12T00:48:08.840Z,10.88
2017-11-12T00:50:36.303Z,10.90
2017-11-12T00:53:03.762Z,12.43
2017-11-12T00:55:31.220Z,9.23
2017-11-12T00:57:59.452Z,9.43
2017-11-12T01:00:26.938Z,11.10
2017-11-12T01:02:54.394Z,9.82
2017-11-12T01:05:21.869Z,13.68
2017-11-12T01:07:49.330Z,8.93
2017-11-12T01:10:17.567Z,8.38
2017-11-12T01:12:45.048Z,13.32
2017-11-12T01:15:12.506Z,12.05
2017-11-12T01:17:40.072Z,10.10
2017-11-12T01:20:07.618Z,15.70
2017-11-12T01:22:35.180Z,8.70
2017-11-12T01:25:02.635Z,10.52
2017-11-12T01:27:30.111Z,11.23
2017-11-12T01:29:58.331Z,8.27
2017-11-12T01:32:25.794Z,7.90
2017-11-12T01:34:53.250Z,10.98
2017-11-12T01:37:20.715Z,10.50
2017-11-12T01:39:48.170Z,8.23
2017-11-12T01:42:15.659Z,9.15
2017-11-12T01:44:43.225Z,12.73
2017-11-12T01:47:11.451Z,11.15
2017-11-12T01:49:38.929Z,8.93
2017-11-12T01:52:06.385Z,11.43
2017-11-12T01:54:33.861Z,11.23
2017-11-12T01:57:01.415Z,11.70
2017-11-12T01:59:28.886Z,10.40
2017-11-12T02:01:57.167Z,11.50
2017-11-12T02:04:25.390Z,7.70
2017-11-12T02:06:52.853Z,10.57
2017-11-12T02:09:20.337Z,12.02
2017-11-12T02:11:47.913Z,9.18
2017-11-12T02:14:16.156Z,8.05
2017-11-12T02:16:43.624Z,12.27
2017-11-12T02:19:11.899Z,11.15
2017-11-12T02:21:39.361Z,10.52
2017-11-12T02:24:06.852Z,12.52
2017-11-12T02:26:35.094Z,10.73
2017-11-12T02:29:02.647Z,11.32
2017-11-12T02:31:30.207Z,10.55
2017-11-12T02:33:57.770Z,10.20
2017-11-12T02:36:25.233Z,12.30
2017-11-12T02:38:52.789Z,8.30
2017-11-12T02:41:20.238Z,9.73
2017-11-12T02:43:47.792Z,9.68
2017-11-12T02:46:15.267Z,10.50
2017-11-12T02:48:43.527Z,12.00
2017-11-12T02:51:10.996Z,15.23
2017-11-12T02:53:38.458Z,12.63
2017-11-12T02:56:06.688Z,15.57
2017-11-12T02:58:34.162Z,12.32
2017-11-12T03:01:01.721Z,16.77
2017-11-12T03:03:29.181Z,14.60
2017-11-12T03:05:56.649Z,11.38
2017-11-12T03:08:24.102Z,12.73
2017-11-12T03:10:51.667Z,9.13
2017-11-12T03:13:19.132Z,12.73
2017-11-12T03:15:47.359Z,11.75
2017-11-12T03:18:14.825Z,19.37
2017-11-12T03:20:42.281Z,11.90
2017-11-12T03:23:09.752Z,13.30
2017-11-12T03:25:37.214Z,11.00
2017-11-12T03:28:04.684Z,10.75
2017-11-12T03:30:32.245Z,14.52
2017-11-12T03:33:00.474Z,16.05
2017-11-12T03:35:27.946Z,13.62
2017-11-12T03:37:55.417Z,13.70
2017-11-12T03:40:22.981Z,10.20
2017-11-12T03:42:50.535Z,16.67
2017-11-12T03:45:18.103Z,18.00
2017-11-12T03:47:45.576Z,12.73
2017-11-12T03:50:13.812Z,12.93
2017-11-12T03:52:41.291Z,11.32
2017-11-12T03:55:09.523Z,19.33
2017-11-12T03:57:37.026Z,15.82
2017-11-12T04:00:04.573Z,11.50
2017-11-12T04:02:32.037Z,17.02
2017-11-12T04:04:59.506Z,13.62
2017-11-12T04:07:27.733Z,24.20
2017-11-12T04:09:55.229Z,19.27
2017-11-12T04:12:22.702Z,18.35
2017-11-12T04:14:50.922Z,14.45
2017-11-12T04:17:18.378Z,13.80
2017-11-12T04:19:45.868Z,19.48
2017-11-12T04:22:13.424Z,18.55
2017-11-12T04:24:40.978Z,19.23
2017-11-12T04:27:08.452Z,21.50
2017-11-12T04:29:35.918Z,19.35
2017-11-12T04:32:04.182Z,14.73
2017-11-12T04:34:32.454Z,20.70
2017-11-12T04:36:59.918Z,18.10
2017-11-12T04:39:27.365Z,19.80
2017-11-12T04:41:54.921Z,19.92
2017-11-12T04:44:23.891Z,16.17
2017-11-12T04:46:51.430Z,15.82
2017-11-12T04:49:18.884Z,14.50
2017-11-12T04:51:46.392Z,20.50
2017-11-12T04:54:14.055Z,18.25
2017-11-12T04:56:42.327Z,18.27
2017-11-12T04:59:09.793Z,20.33
2017-11-12T05:01:37.362Z,19.10
2017-11-12T05:04:04.803Z,15.90
2017-11-12T05:06:32.259Z,15.20
2017-11-12T05:08:59.718Z,16.90
2017-11-12T05:11:27.969Z,19.48
2017-11-12T05:13:55.543Z,21.27
2017-11-12T05:16:23.014Z,12.63
2017-11-12T05:18:51.233Z,18.17
2017-11-12T05:21:18.722Z,13.20
2017-11-12T05:23:46.196Z,21.58
2017-11-12T05:26:14.420Z,17.87
2017-11-12T05:28:41.919Z,15.90
2017-11-12T05:31:09.482Z,17.73
2017-11-12T05:33:37.038Z,17.52
2017-11-12T05:36:05.309Z,16.55
2017-11-12T05:38:32.790Z,21.33
2017-11-12T05:41:01.148Z,14.23
2017-11-12T05:43:28.707Z,18.50
2017-11-12T05:45:56.262Z,17.55
2017-11-12T05:48:23.715Z,18.80
2017-11-12T05:50:51.188Z,13.02
2017-11-12T05:53:18.742Z,14.68
2017-11-12T05:55:46.300Z,12.95
2017-11-12T05:58:13.754Z,17.33
2017-11-12T06:00:41.210Z,15.10
2017-11-12T06:03:08.671Z,15.93
2017-11-12T06:05:36.222Z,16.08
2017-11-12T06:08:03.696Z,22.73
2017-11-12T06:10:31.935Z,17.60
2017-11-12T06:12:59.389Z,14.65
2017-11-12T06:15:26.875Z,17.23
2017-11-12T06:17:54.336Z,19.58
2017-11-12T06:20:21.789Z,17.95
2017-11-12T06:22:49.249Z,16.20
2017-11-12T06:25:16.720Z,21.25
2017-11-12T06:27:44.950Z,16.65
2017-11-12T06:30:12.405Z,23.02
2017-11-12T06:32:39.892Z,23.87
2017-11-12T06:35:07.346Z,17.12
2017-11-12T06:37:34.891Z,20.33
2017-11-12T06:40:02.518Z,20.15
2017-11-12T06:42:30.064Z,19.35
2017-11-12T06:44:57.593Z,15.55
2017-11-12T06:47:25.817Z,19.77
2017-11-12T06:49:53.270Z,16.15
2017-11-12T06:52:20.757Z,14.80
2017-11-12T06:54:48.326Z,15.85
2017-11-12T06:57:15.789Z,20.92
2017-11-12T06:59:43.263Z,18.25
2017-11-12T07:02:10.743Z,22.52
2017-11-12T07:04:38.265Z,19.55
2017-11-12T07:07:06.488Z,16.27
2017-11-12T07:09:33.944Z,17.73
2017-11-12T07:12:01.443Z,22.00
2017-11-12T07:14:28.990Z,19.02
2017-11-12T07:16:56.582Z,17.30
2017-11-12T07:19:24.834Z,11.23
2017-11-12T07:21:52.298Z,17.20
2017-11-12T07:24:19.852Z,14.95
2017-11-12T07:26:47.306Z,14.70
2017-11-12T07:29:14.785Z,20.55
2017-11-12T07:31:43.038Z,13.82
2017-11-12T07:34:10.490Z,13.57
2017-11-12T07:36:37.948Z,14.10
2017-11-12T07:39:05.504Z,10.52
2017-11-12T07:41:33.071Z,10.55
2017-11-12T07:44:00.629Z,10.95
2017-11-12T07:46:28.904Z,19.08
2017-11-12T07:48:56.469Z,11.80
2017-11-12T07:51:23.942Z,15.85
2017-11-12T07:53:52.194Z,19.98
2017-11-12T07:56:19.650Z,15.45
2017-11-12T07:58:47.102Z,16.52
2017-11-12T08:01:15.331Z,13.50
2017-11-12T08:03:42.844Z,12.02
2017-11-12T08:06:10.337Z,24.00
2017-11-12T08:08:37.910Z,20.35
2017-11-12T08:11:05.412Z,19.50
2017-11-12T08:13:32.974Z,15.50
2017-11-12T08:16:00.429Z,15.93
2017-11-12T08:18:27.913Z,15.23
2017-11-12T08:20:56.134Z,19.62
2017-11-12T08:23:23.621Z,11.57
2017-11-12T08:25:51.078Z,16.95
2017-11-12T08:28:18.548Z,9.52
2017-11-12T08:30:46.808Z,15.27
2017-11-12T08:33:14.270Z,16.87
2017-11-12T08:35:41.728Z,18.75
2017-11-12T08:38:09.207Z,23.25
2017-11-12T08:40:37.455Z,10.48
2017-11-12T08:43:04.920Z,15.20
2017-11-12T08:45:32.469Z,14.30
2017-11-12T08:47:59.978Z,9.32
2017-11-12T08:50:27.497Z,12.40
2017-11-12T08:52:55.714Z,11.40
2017-11-12T08:55:23.173Z,9.20
2017-11-12T08:57:50.632Z,16.87
2017-11-12T09:00:18.100Z,13.82
2017-11-12T09:02:45.578Z,9.20
2017-11-12T09:05:13.041Z,12.63
2017-11-12T09:07:40.608Z,10.18
2017-11-12T09:10:08.067Z,13.82
2017-11-12T09:12:36.339Z,12.00
2017-11-12T09:15:03.808Z,13.85
2017-11-12T09:17:32.052Z,11.93
2017-11-12T09:19:59.623Z,7.22
2017-11-12T09:22:27.087Z,8.98
2017-11-12T09:24:54.547Z,10.88
2017-11-12T09:27:22.795Z,8.23
2017-11-12T09:29:50.256Z,6.93
2017-11-12T09:32:17.832Z,13.80
2017-11-12T09:34:45.289Z,9.02
2017-11-12T09:37:12.756Z,14.38
2017-11-12T09:39:40.991Z,10.68
2017-11-12T09:42:08.468Z,15.10
2017-11-12T09:44:35.953Z,12.60
2017-11-12T09:47:04.182Z,5.53
2017-11-12T09:49:31.638Z,11.02
2017-11-12T09:51:59.099Z,4.70
2017-11-12T09:54:26.557Z,10.05
2017-11-12T09:56:54.023Z,9.45
2017-11-12T09:59:21.595Z,5.70
2017-11-12T10:01:49.141Z,8.32
2017-11-12T10:04:16.607Z,13.60
2017-11-12T10:06:44.063Z,9.57
2017-11-12T10:09:12.391Z,13.18
2017-11-12T10:11:39.891Z,9.60
2017-11-12T10:14:07.443Z,10.75
2017-11-12T10:16:35.025Z,4.93
2017-11-12T10:19:03.344Z,14.13
2017-11-12T10:21:30.842Z,7.45
2017-11-12T10:23:58.403Z,9.95
2017-11-12T10:26:25.873Z,9.18
2017-11-12T10:28:54.130Z,7.05
2017-11-12T10:31:21.606Z,6.55
2017-11-12T10:33:49.866Z,8.82
2017-11-12T10:36:17.335Z,8.43
2017-11-12T10:38:44.900Z,6.43
2017-11-12T10:41:13.218Z,7.10
2017-11-12T10:43:40.683Z,8.40
2017-11-12T10:46:08.138Z,11.15
2017-11-12T10:48:35.635Z,5.43
2017-11-12T10:51:03.103Z,6.20
2017-11-12T10:53:31.366Z,7.40
2017-11-12T10:55:58.822Z,6.25
2017-11-12T10:58:26.387Z,8.43
2017-11-12T11:00:54.639Z,6.40
2017-11-12T11:03:22.086Z,4.90
2017-11-12T11:05:49.591Z,5.50
2017-11-12T11:08:17.815Z,3.75
2017-11-12T11:10:45.284Z,3.97
2017-11-12T11:13:12.744Z,6.80
2017-11-12T11:15:40.314Z,10.02
2017-11-12T11:18:07.779Z,3.75
2017-11-12T11:20:35.327Z,4.65
2017-11-12T11:23:02.798Z,3.83
2017-11-12T11:25:31.066Z,9.15
2017-11-12T11:27:58.634Z,5.70
2017-11-12T11:30:26.904Z,6.72
2017-11-12T11:32:55.163Z,8.27
2017-11-12T11:35:22.623Z,6.65
2017-11-12T11:37:50.087Z,4.40
2017-11-12T11:40:17.542Z,7.20
2017-11-12T11:42:45.098Z,6.47
2017-11-12T11:45:12.655Z,4.43
2017-11-12T11:47:40.225Z,5.45
2017-11-12T11:50:07.686Z,11.73
2017-11-12T11:52:35.186Z,5.50
2017-11-12T11:55:02.647Z,7.47
2017-11-12T11:57:30.146Z,6.45
2017-11-12T11:59:57.711Z,7.12
2017-11-12T12:02:25.170Z,6.35
2017-11-12T12:04:53.394Z,8.45
2017-11-12T12:07:20.855Z,8.38
2017-11-12T12:09:48.309Z,7.18
2017-11-12T12:12:15.810Z,8.15
2017-11-12T12:14:44.856Z,7.22
2017-11-12T12:17:12.308Z,9.55
2017-11-12T12:19:39.757Z,8.93
2017-11-12T12:22:07.227Z,9.25
2017-11-12T12:24:34.690Z,8.63
2017-11-12T12:27:02.188Z,6.15
2017-11-12T12:29:29.646Z,8.27
2017-11-12T12:31:58.618Z,6.15
2017-11-12T12:34:26.103Z,5.75
2017-11-12T12:36:53.545Z,4.32
2017-11-12T12:39:21.019Z,7.45
2017-11-12T12:41:49.236Z,9.07
2017-11-12T12:44:16.696Z,12.52
2017-11-12T12:46:44.191Z,11.07
2017-11-12T12:49:11.646Z,7.62
2017-11-12T12:51:39.199Z,6.62
2017-11-12T12:54:06.671Z,9.75
2017-11-12T12:56:34.132Z,7.55
2017-11-12T12:59:02.365Z,12.45
2017-11-12T13:01:29.822Z,9.02
2017-11-12T13:03:57.273Z,6.05
2017-11-12T13:06:24.729Z,6.10
2017-11-12T13:08:52.199Z,14.00
2017-11-12T13:11:19.690Z,6.22
2017-11-12T13:13:47.138Z,20.25
2017-11-12T13:16:14.749Z,14.52
2017-11-12T13:18:47.470Z,9.05
2017-11-12T13:21:14.948Z,9.02
2017-11-12T13:23:43.165Z,13.35
2017-11-12T13:26:10.632Z,7.35
2017-11-12T13:28:39.009Z,9.13
2017-11-12T13:31:06.479Z,9.95
2017-11-12T13:33:33.934Z,7.37
2017-11-12T13:36:01.395Z,8.60
2017-11-12T13:38:28.967Z,10.57
2017-11-12T13:40:56.428Z,13.13
2017-11-12T13:43:23.899Z,9.48
2017-11-12T13:45:52.163Z,8.73
2017-11-12T13:48:19.715Z,12.60
2017-11-12T13:50:47.170Z,9.75
2017-11-12T13:53:14.626Z,7.85
2017-11-12T13:55:42.142Z,8.88
2017-11-12T13:58:09.644Z,11.23
2017-11-12T14:00:37.103Z,12.63
2017-11-12T14:03:04.667Z,9.95
2017-11-12T14:05:32.219Z,20.35
2017-11-12T14:07:59.774Z,10.85
2017-11-12T14:10:27.254Z,5.35
2017-11-12T14:12:55.505Z,8.40
2017-11-12T14:15:23.088Z,10.55
2017-11-12T14:17:51.313Z,6.28
2017-11-12T14:20:18.774Z,12.68
2017-11-12T14:22:46.229Z,8.88
2017-11-12T14:25:13.695Z,6.30
2017-11-12T14:27:41.159Z,9.65
2017-11-12T14:30:08.636Z,13.65
2017-11-12T14:32:36.867Z,6.62
2017-11-12T14:35:04.350Z,12.10
2017-11-12T14:37:31.801Z,7.65
2017-11-12T14:39:59.264Z,7.18
2017-11-12T14:42:26.715Z,9.57
2017-11-12T14:44:54.241Z,10.07
2017-11-12T14:47:21.695Z,10.57
2017-11-12T14:49:49.151Z,7.55
2017-11-12T14:52:16.669Z,11.48
2017-11-12T14:54:44.117Z,11.68
2017-11-12T14:57:11.571Z,9.48
2017-11-12T14:59:39.135Z,5.07
2017-11-12T15:02:06.794Z,11.63
2017-11-12T15:04:34.349Z,7.70
2017-11-12T15:07:01.925Z,8.45
2017-11-12T15:09:29.379Z,11.95
2017-11-12T15:11:57.654Z,14.38
2017-11-12T15:14:25.105Z,10.57
2017-11-12T15:16:52.565Z,11.70
2017-11-12T15:19:20.805Z,6.12
2017-11-12T15:21:48.281Z,12.35
2017-11-12T15:24:15.838Z,8.52
2017-11-12T15:26:43.398Z,7.10
2017-11-12T15:29:10.882Z,11.80
2017-11-12T15:31:39.135Z,8.68
2017-11-12T15:34:06.696Z,6.90
2017-11-12T15:36:34.153Z,16.92
2017-11-12T15:39:01.712Z,8.45
2017-11-12T15:41:29.173Z,18.10
2017-11-12T15:43:56.643Z,10.05
2017-11-12T15:46:24.869Z,13.18
2017-11-12T15:48:52.341Z,13.55
2017-11-12T15:51:19.923Z,10.60
2017-11-12T15:53:47.385Z,13.13
2017-11-12T15:56:15.653Z,15.13
2017-11-12T15:58:43.202Z,11.02
2017-11-12T16:01:10.667Z,10.60
2017-11-12T16:03:38.128Z,7.80
2017-11-12T16:06:05.607Z,12.63
2017-11-12T16:08:33.062Z,8.23
2017-11-12T16:11:00.526Z,10.75
2017-11-12T16:13:28.148Z,12.77
2017-11-12T16:15:55.625Z,7.97
2017-11-12T16:18:23.878Z,7.65
2017-11-12T16:20:51.434Z,6.30
2017-11-12T16:23:19.009Z,8.98
2017-11-12T16:25:46.470Z,11.00
2017-11-12T16:28:14.707Z,17.50
2017-11-12T16:30:42.186Z,11.85
2017-11-12T16:33:09.685Z,10.35
2017-11-12T16:35:37.142Z,10.20
2017-11-12T16:38:04.658Z,13.70
2017-11-12T16:40:32.213Z,9.02
2017-11-12T16:42:59.673Z,12.13
2017-11-12T16:45:27.154Z,13.15
2017-11-12T16:47:55.402Z,12.80
2017-11-12T16:50:22.928Z,8.32
2017-11-12T16:52:50.395Z,6.70
2017-11-12T16:55:17.862Z,12.77
2017-11-12T16:57:45.330Z,8.82
2017-11-12T17:00:12.791Z,9.40
2017-11-12T17:02:40.266Z,12.25
2017-11-12T17:05:08.519Z,10.95
2017-11-12T17:07:36.009Z,11.43
2017-11-12T17:10:04.240Z,9.93
2017-11-12T17:12:31.708Z,11.55
2017-11-12T17:14:59.571Z,17.27
2017-11-12T17:17:27.142Z,14.48
2017-11-12T17:19:54.607Z,11.60
2017-11-12T17:22:22.085Z,11.05
2017-11-12T17:24:49.566Z,11.23
2017-11-12T17:27:17.055Z,18.42
2017-11-12T17:29:44.527Z,13.20
2017-11-12T17:32:12.107Z,13.48
2017-11-12T17:34:40.329Z,13.93
2017-11-12T17:37:07.803Z,16.65
2017-11-12T17:39:35.382Z,13.25
2017-11-12T17:42:02.968Z,13.88
2017-11-12T17:44:30.517Z,12.73
2017-11-12T17:46:58.061Z,12.45
2017-11-12T17:49:26.316Z,18.08
2017-11-12T17:51:53.908Z,16.98
2017-11-12T17:54:22.167Z,12.88
2017-11-12T17:56:50.443Z,18.85
2017-11-12T17:59:18.697Z,13.32
2017-11-12T18:01:46.226Z,18.85
2017-11-12T18:04:13.729Z,10.93
2017-11-12T18:06:41.184Z,13.82
2017-11-12T18:09:08.709Z,14.00
2017-11-12T18:11:36.203Z,14.25
2017-11-12T18:14:03.680Z,17.87
2017-11-12T18:16:31.903Z,15.20
2017-11-12T18:18:59.381Z,20.00
2017-11-12T18:21:26.849Z,16.17
2017-11-12T18:23:55.131Z,16.87
2017-11-12T18:26:23.357Z,14.68
2017-11-12T18:28:50.817Z,13.93
2017-11-12T18:31:18.278Z,16.12
2017-11-12T18:33:45.764Z,17.80
2017-11-12T18:36:13.227Z,17.25
2017-11-12T18:38:41.462Z,17.25
2017-11-12T18:41:08.924Z,19.75
2017-11-12T18:43:36.451Z,16.05
2017-11-12T18:46:03.907Z,13.25
2017-11-12T18:48:31.373Z,18.60
2017-11-12T18:50:58.823Z,22.05
2017-11-12T18:53:27.099Z,14.77
2017-11-12T18:55:54.763Z,13.65
2017-11-12T19:01:41.088Z,15.85
2017-11-12T19:04:27.351Z,15.05
2017-11-12T19:06:59.963Z,20.85
2017-11-12T19:09:27.519Z,17.80
2017-11-12T19:11:54.966Z,15.75
2017-11-12T19:14:22.535Z,16.20
2017-11-12T19:16:49.978Z,16.23
2017-11-12T19:19:17.859Z,15.25
2017-11-12T19:25:02.091Z,17.85
2017-11-12T19:27:30.323Z,22.20
2017-11-12T19:29:57.845Z,20.95
2017-11-12T19:32:25.306Z,20.88
2017-11-12T19:34:52.772Z,15.57
2017-11-12T19:37:20.242Z,17.30
2017-11-12T19:39:47.702Z,20.52
2017-11-12T19:42:15.173Z,16.73
2017-11-12T19:44:42.639Z,19.50
2017-11-12T19:47:10.262Z,22.98
2017-11-12T19:49:37.765Z,19.02
2017-11-12T19:52:05.221Z,21.20
2017-11-12T19:54:32.781Z,24.83
2017-11-12T19:57:00.338Z,23.87
2017-11-12T19:59:27.950Z,29.27
2017-11-12T20:01:55.423Z,23.65
2017-11-12T20:04:22.918Z,20.52
2017-11-12T20:06:50.475Z,19.75
2017-11-12T20:09:17.947Z,20.12
2017-11-12T20:11:46.257Z,16.73
2017-11-12T20:14:13.732Z,19.05
2017-11-12T20:16:41.229Z,25.83
2017-11-12T20:19:08.695Z,21.00
2017-11-12T20:21:36.924Z,18.80
2017-11-12T20:24:04.464Z,18.77
2017-11-12T20:26:31.930Z,25.73
2017-11-12T20:28:59.416Z,18.15
2017-11-12T20:31:26.895Z,22.70
2017-11-12T20:33:55.138Z,21.37
2017-11-12T20:36:22.632Z,22.05
2017-11-12T20:38:50.923Z,27.35
2017-11-12T20:41:18.386Z,21.77
2017-11-12T20:43:45.910Z,21.77
2017-11-12T20:46:13.378Z,17.50
2017-11-12T20:48:41.690Z,22.17
2017-11-12T20:51:09.160Z,18.60
2017-11-12T20:53:36.629Z,16.12
2017-11-12T20:56:04.096Z,17.08
2017-11-12T20:58:31.550Z,17.35
2017-11-12T21:00:59.021Z,19.70
2017-11-12T21:03:27.304Z,15.43
2017-11-12T21:05:55.932Z,19.67
2017-11-12T21:08:23.401Z,15.85
2017-11-12T21:10:50.992Z,22.00
2017-11-12T21:13:19.432Z,17.75
2017-11-12T21:15:47.002Z,16.33
2017-11-12T21:18:14.458Z,15.00
2017-11-12T21:20:43.438Z,16.92
2017-11-12T21:23:11.813Z,15.70
2017-11-12T21:25:39.284Z,15.95
2017-11-12T21:28:11.800Z,22.20
2017-11-12T21:30:42.687Z,15.48
2017-11-12T21:33:11.066Z,21.52
2017-11-12T21:35:38.534Z,15.10
2017-11-12T21:38:06.001Z,17.17
2017-11-12T21:40:33.462Z,18.60
2017-11-12T21:43:00.933Z,22.30
2017-11-12T21:45:28.415Z,18.55
2017-11-12T21:47:56.670Z,17.55
2017-11-12T21:50:24.163Z,17.62
2017-11-12T21:52:51.622Z,18.23
2017-11-12T21:55:19.077Z,16.60
2017-11-12T21:57:46.554Z,18.00
2017-11-12T22:00:14.005Z,19.33
2017-11-12T22:02:41.750Z,17.90
2017-11-12T22:05:09.428Z,19.10
2017-11-12T22:07:37.202Z,24.08
2017-11-12T22:10:04.852Z,18.25
2017-11-12T22:12:32.349Z,18.98
2017-11-12T22:14:59.915Z,18.73
2017-11-12T22:17:27.475Z,17.85
2017-11-12T22:19:54.935Z,20.98
2017-11-12T22:22:23.172Z,19.87
2017-11-12T22:24:50.635Z,23.35
2017-11-12T22:27:18.089Z,15.38
2017-11-12T22:29:45.575Z,16.67
2017-11-12T22:32:13.099Z,18.30
2017-11-12T22:34:40.546Z,14.70
2017-11-12T22:37:08.047Z,18.08
2017-11-12T22:39:35.530Z,26.80
2017-11-12T22:42:03.834Z,18.33
2017-11-12T22:44:31.325Z,16.20
2017-11-12T22:47:00.325Z,19.90
2017-11-12T22:49:27.800Z,16.08
2017-11-12T22:51:55.346Z,16.70
2017-11-12T22:54:22.810Z,20.75
2017-11-12T22:56:50.370Z,21.52
2017-11-12T22:59:17.848Z,20.30
2017-11-12T23:01:46.080Z,17.23
2017-11-12T23:04:13.607Z,18.05
2017-11-12T23:06:41.111Z,17.05
2017-11-12T23:09:08.686Z,26.67
2017-11-12T23:11:36.948Z,17.37
2017-11-12T23:14:04.416Z,22.23
2017-11-12T23:16:32.651Z,27.25
2017-11-12T23:19:00.123Z,24.40
2017-11-12T23:21:27.580Z,24.42
2017-11-12T23:23:55.249Z,26.87
2017-11-12T23:26:22.715Z,23.08
2017-11-12T23:28:50.187Z,19.77
2017-11-12T23:31:18.444Z,20.95
2017-11-12T23:33:45.906Z,20.77
2017-11-12T23:36:14.137Z,21.23
2017-11-12T23:38:41.617Z,22.45
2017-11-12T23:41:09.083Z,26.50
2017-11-12T23:43:36.638Z,17.48
2017-11-12T23:46:04.115Z,24.15
2017-11-12T23:48:32.350Z,17.70
2017-11-12T23:50:59.810Z,17.87
2017-11-12T23:53:27.267Z,15.68
2017-11-12T23:55:54.724Z,14.82
2017-11-12T23:58:22.196Z,22.08
